Etretat — FIDP — position and weather

sailwx.info

Track history (hours):
 
Tides and Currents Weather Stations Pressure Air Temp Water Temp Dewpoint Dewpoint Depression Visibility Wind Speed Wind Dir Waves Ship Positions

Etretat

Last reported at 2014-Sep-22 15:33 UTC. Time now 2014-Sep-22 16:18 UTC.
Position N 50°49' W 001°06'.

Length 187 m; draft 6 m.

Type: Ship. MMSI: 228022900.

Date/timePositionNaut miles runAvg speedWind from/ knotsBaromVisibWave heightAir tempDewpointWater temp
2014-Sep-22 15:33N 50°49' W 001°06'0 0.0
2014-Sep-22 14:33N 50°49' W 001°06'1 1.5
2014-Sep-22 13:33N 50°47' W 001°06'1312.8
2014-Sep-22 12:33N 50°35' W 001°08'275 7.4
2014-Sep-20 23:24N 46°39' W 004°43'24018.7
2014-Sep-20 10:33N 50°14' W 002°02'2120.8
2014-Sep-20 09:32N 50°24' W 001°33'2020.0
2014-Sep-20 08:33N 50°36' W 001°08'1312.8
2014-Sep-20 07:33N 50°48' W 001°07'1 0.7
2014-Sep-20 06:34N 50°49' W 001°06'0 0.0
2014-Sep-20 05:34N 50°49' W 001°06'0 0.0
2014-Sep-20 04:34N 50°49' W 001°06'8 8.4
2014-Sep-20 03:33N 50°42' W 000°58'1211.7
2014-Sep-20 02:33N 50°32' W 000°48'1211.7
2014-Sep-20 01:33N 50°22' W 000°37'3611.7
2014-Sep-19 22:30N 49°50' W 000°14'9 9.7
2014-Sep-19 21:33N 49°41' W 000°08'1010.2
2014-Sep-19 20:33N 49°32' W 000°01'6 5.9
2014-Sep-19 19:33N 49°29' E 000°07'0 0.0
2014-Sep-19 18:33N 49°29' E 000°07'0 0.0
2014-Sep-19 17:33N 49°29' E 000°07'0 0.0
2014-Sep-19 16:34N 49°29' E 000°07'9 9.3
2014-Sep-19 15:33N 49°36' W 000°04'4620.8
2014-Sep-19 13:21N 50°13' W 000°45'1620.4
2014-Sep-19 12:33N 50°29' W 000°48'1817.8
2014-Sep-19 11:33N 50°44' W 001°03'5 5.1
2014-Sep-19 10:33N 50°49' W 001°06'0 0.0
2014-Sep-19 09:33N 50°49' W 001°06'0 0.0
2014-Sep-19 08:33N 50°49' W 001°06'0 0.0
2014-Sep-19 07:33N 50°49' W 001°06'1 0.9
2014-Sep-19 06:33N 50°48' W 001°07'1413.6
2014-Sep-19 05:33N 50°37' W 000°54'1212.0
2014-Sep-19 04:34N 50°27' W 000°45'4811.9
2014-Sep-19 00:30N 49°44' W 000°11'4 4.7
2014-Sep-18 23:33N 49°40' W 000°07'1 1.1
2014-Sep-18 22:34N 49°40' W 000°05'2 2.0
2014-Sep-18 21:33N 49°38' W 000°04'1110.6
2014-Sep-18 20:33N 49°29' E 000°05'1 1.4
2014-Sep-18 19:33N 49°29' E 000°07'0 0.0
2014-Sep-18 18:33N 49°29' E 000°07'0 0.0
2014-Sep-18 17:33N 49°29' E 000°07'0 0.0
2014-Sep-18 16:33N 49°29' E 000°07'9 9.3
2014-Sep-18 15:33N 49°35' W 000°04'5919.7
2014-Sep-18 12:33N 50°28' W 000°46'1919.1
2014-Sep-18 11:33N 50°44' W 001°03'5 5.3
2014-Sep-18 10:34N 50°49' W 001°06'0 0.0
2014-Sep-18 09:34N 50°49' W 001°06'0 0.0
2014-Sep-18 08:33N 50°49' W 001°06'0 0.0
2014-Sep-18 07:33N 50°49' W 001°06'1 1.0
2014-Sep-18 06:33N 50°48' W 001°07'1413.7
2014-Sep-18 05:33N 50°37' W 000°53'1212.4
2014-Sep-18 04:33N 50°28' W 000°41'3912.6
2014-Sep-18 01:28N 49°52' W 000°18'1111.6
2014-Sep-18 00:33N 49°42' W 000°12'4 4.2
2014-Sep-17 23:33N 49°38' W 000°10'2 1.6
2014-Sep-17 22:33N 49°39' W 000°08'2 1.9
2014-Sep-17 21:33N 49°38' W 000°05'1111.5
2014-Sep-17 20:33N 49°29' E 000°06'1 0.7
2014-Sep-17 19:34N 49°29' E 000°07'0 0.0
2014-Sep-17 18:33N 49°29' E 000°07'0 0.0
2014-Sep-17 17:33N 49°29' E 000°07'0 0.0
2014-Sep-17 16:33N 49°29' E 000°07'10 9.6
2014-Sep-17 15:33N 49°36' W 000°04'6320.7
2014-Sep-17 12:31N 50°32' W 000°48'1819.2
2014-Sep-17 11:33N 50°47' W 001°06'2 2.1
2014-Sep-17 10:33N 50°49' W 001°06'0 0.0
2014-Sep-17 09:33N 50°49' W 001°06'0 0.0
2014-Sep-17 08:33N 50°49' W 001°06'0 0.0
2014-Sep-17 07:33N 50°49' W 001°06'1 0.9
2014-Sep-17 06:33N 50°48' W 001°07'1413.7
2014-Sep-17 05:33N 50°37' W 000°54'1212.0
2014-Sep-17 04:33N 50°28' W 000°42'1613.0
2014-Sep-17 03:18N 50°15' W 000°27'2313.0
2014-Sep-17 01:31N 49°52' W 000°17'1010.3
2014-Sep-17 00:33N 49°43' W 000°12'3 3.2
2014-Sep-16 23:33N 49°40' W 000°09'1 1.4
2014-Sep-16 22:33N 49°40' W 000°07'6 6.3
2014-Sep-16 21:33N 49°35' W 000°02'8 8.1
2014-Sep-16 20:33N 49°29' E 000°07'0 0.0
2014-Sep-16 19:33N 49°29' E 000°07'0 0.0
2014-Sep-16 18:33N 49°29' E 000°07'0 0.0
2014-Sep-16 17:33N 49°29' E 000°07'0 0.0
2014-Sep-16 16:33N 49°29' E 000°07'9 9.4
2014-Sep-16 15:33N 49°36' W 000°04'4020.0
2014-Sep-16 13:33N 50°13' W 000°24'2019.7
2014-Sep-16 12:33N 50°29' W 000°44'2019.7
2014-Sep-16 11:33N 50°44' W 001°03'5 5.1
2014-Sep-16 10:34N 50°49' W 001°06'0 0.0
2014-Sep-16 09:34N 50°49' W 001°06'0 0.0
2014-Sep-16 08:33N 50°49' W 001°06'0 0.0
2014-Sep-16 07:34N 50°49' W 001°06'6 6.2
2014-Sep-16 06:33N 50°43' W 001°01'1313.1
2014-Sep-16 05:33N 50°32' W 000°49'1712.6
2014-Sep-16 04:13N 50°18' W 000°36'3311.1
2014-Sep-16 01:16N 49°49' W 000°13'7 9.4
2014-Sep-16 00:33N 49°42' W 000°09'10 9.5
2014-Sep-15 23:33N 49°34' W 000°02'7 7.5
2014-Sep-15 22:34N 49°29' E 000°07'0 0.0
2014-Sep-15 21:34N 49°29' E 000°07'6 6.3
2014-Sep-15 20:34N 49°33' W 000°01'2221.7
2014-Sep-15 19:33N 49°51' W 000°19'2221.4
2014-Sep-15 18:31N 50°10' W 000°37'2021.2
2014-Sep-15 17:34N 50°28' W 000°51'2019.6
2014-Sep-15 16:34N 50°46' W 001°05'3 2.8
2014-Sep-15 15:33N 50°49' W 001°06'0 0.0
2014-Sep-15 14:33N 50°49' W 001°06'3 3.0
2014-Sep-15 13:33N 50°46' W 001°05'1615.5
2014-Sep-15 12:33N 50°31' W 001°14'17421.7
2014-Sep-15 04:33N 48°41' W 004°41'2020.4
2014-Sep-15 03:33N 48°26' W 005°02'2019.7
2014-Sep-15 02:33N 48°07' W 005°10'2120.7
2014-Sep-15 01:33N 47°47' W 005°06'19320.6
2014-Sep-14 16:11N 44°39' W 004°06'1420.7
2014-Sep-14 15:30N 44°25' W 004°01'2021.3
2014-Sep-14 14:32N 44°05' W 003°55'2321.5
2014-Sep-14 13:29N 43°43' W 003°48'5 0.9
2014-Sep-14 08:12N 43°38' W 003°47'1422.1
2014-Sep-14 07:33N 43°53' W 003°50'2121.4
2014-Sep-14 06:33N 44°14' W 003°55'22021.7
2014-Sep-13 20:27N 47°51' W 004°42'1819.7
2014-Sep-13 19:34N 48°08' W 004°46'1818.0
2014-Sep-13 18:33N 48°26' W 004°50'18019.7
2014-Sep-13 09:27N 50°27' W 001°26'1718.8
2014-Sep-13 08:34N 50°36' W 001°04'1212.1
2014-Sep-13 07:33N 50°48' W 001°07'1 0.7
2014-Sep-13 06:33N 50°49' W 001°06'0 0.0
2014-Sep-13 05:33N 50°49' W 001°06'0 0.0
2014-Sep-13 04:33N 50°49' W 001°06'6 6.3
2014-Sep-13 03:33N 50°43' W 001°01'1313.1
2014-Sep-13 02:33N 50°33' W 000°48'5512.6
2014-Sep-12 22:12N 49°44' W 000°10'710.3
2014-Sep-12 21:34N 49°38' W 000°06'9 8.5
2014-Sep-12 20:34N 49°31' E 000°01'4 4.1
2014-Sep-12 19:34N 49°29' E 000°07'0 0.0
2014-Sep-12 18:33N 49°29' E 000°07'0 0.0
2014-Sep-12 17:34N 49°29' E 000°07'0 0.0
2014-Sep-12 16:34N 49°29' E 000°07'1111.0
2014-Sep-12 15:33N 49°37' W 000°05'  
Track history (hours):
 
Tides and Currents Weather Stations Pressure Air Temp Water Temp Dewpoint Dewpoint Depression Visibility Wind Speed Wind Dir Waves Ship Positions

Etretat

Last reported at 2014-Sep-22 15:33 UTC. Time now 2014-Sep-22 16:18 UTC.
Position N 50°49' W 001°06'.

Length 187 m; draft 6 m.

Type: Ship. MMSI: 228022900.

Date/timePositionNaut miles runAvg speedWind from/ knotsBaromVisibWave heightAir tempDewpointWater temp
2014-Sep-22 15:33N 50°49' W 001°06'0 0.0
2014-Sep-22 14:33N 50°49' W 001°06'1 1.5
2014-Sep-22 13:33N 50°47' W 001°06'1312.8
2014-Sep-22 12:33N 50°35' W 001°08'275 7.4
2014-Sep-20 23:24N 46°39' W 004°43'24018.7
2014-Sep-20 10:33N 50°14' W 002°02'2120.8
2014-Sep-20 09:32N 50°24' W 001°33'2020.0
2014-Sep-20 08:33N 50°36' W 001°08'1312.8
2014-Sep-20 07:33N 50°48' W 001°07'1 0.7
2014-Sep-20 06:34N 50°49' W 001°06'0 0.0
2014-Sep-20 05:34N 50°49' W 001°06'0 0.0
2014-Sep-20 04:34N 50°49' W 001°06'8 8.4
2014-Sep-20 03:33N 50°42' W 000°58'1211.7
2014-Sep-20 02:33N 50°32' W 000°48'1211.7
2014-Sep-20 01:33N 50°22' W 000°37'3611.7
2014-Sep-19 22:30N 49°50' W 000°14'9 9.7
2014-Sep-19 21:33N 49°41' W 000°08'1010.2
2014-Sep-19 20:33N 49°32' W 000°01'6 5.9
2014-Sep-19 19:33N 49°29' E 000°07'0 0.0
2014-Sep-19 18:33N 49°29' E 000°07'0 0.0
2014-Sep-19 17:33N 49°29' E 000°07'0 0.0
2014-Sep-19 16:34N 49°29' E 000°07'9 9.3
2014-Sep-19 15:33N 49°36' W 000°04'4620.8
2014-Sep-19 13:21N 50°13' W 000°45'1620.4
2014-Sep-19 12:33N 50°29' W 000°48'1817.8
2014-Sep-19 11:33N 50°44' W 001°03'5 5.1
2014-Sep-19 10:33N 50°49' W 001°06'0 0.0
2014-Sep-19 09:33N 50°49' W 001°06'0 0.0
2014-Sep-19 08:33N 50°49' W 001°06'0 0.0
2014-Sep-19 07:33N 50°49' W 001°06'1 0.9
2014-Sep-19 06:33N 50°48' W 001°07'1413.6
2014-Sep-19 05:33N 50°37' W 000°54'1212.0
2014-Sep-19 04:34N 50°27' W 000°45'4811.9
2014-Sep-19 00:30N 49°44' W 000°11'4 4.7
2014-Sep-18 23:33N 49°40' W 000°07'1 1.1
2014-Sep-18 22:34N 49°40' W 000°05'2 2.0
2014-Sep-18 21:33N 49°38' W 000°04'1110.6
2014-Sep-18 20:33N 49°29' E 000°05'1 1.4
2014-Sep-18 19:33N 49°29' E 000°07'0 0.0
2014-Sep-18 18:33N 49°29' E 000°07'0 0.0
2014-Sep-18 17:33N 49°29' E 000°07'0 0.0
2014-Sep-18 16:33N 49°29' E 000°07'9 9.3
2014-Sep-18 15:33N 49°35' W 000°04'5919.7
2014-Sep-18 12:33N 50°28' W 000°46'1919.1
2014-Sep-18 11:33N 50°44' W 001°03'5 5.3
2014-Sep-18 10:34N 50°49' W 001°06'0 0.0
2014-Sep-18 09:34N 50°49' W 001°06'0 0.0
2014-Sep-18 08:33N 50°49' W 001°06'0 0.0
2014-Sep-18 07:33N 50°49' W 001°06'1 1.0
2014-Sep-18 06:33N 50°48' W 001°07'1413.7
2014-Sep-18 05:33N 50°37' W 000°53'1212.4
2014-Sep-18 04:33N 50°28' W 000°41'3912.6
2014-Sep-18 01:28N 49°52' W 000°18'1111.6
2014-Sep-18 00:33N 49°42' W 000°12'4 4.2
2014-Sep-17 23:33N 49°38' W 000°10'2 1.6
2014-Sep-17 22:33N 49°39' W 000°08'2 1.9
2014-Sep-17 21:33N 49°38' W 000°05'1111.5
2014-Sep-17 20:33N 49°29' E 000°06'1 0.7
2014-Sep-17 19:34N 49°29' E 000°07'0 0.0
2014-Sep-17 18:33N 49°29' E 000°07'0 0.0
2014-Sep-17 17:33N 49°29' E 000°07'0 0.0
2014-Sep-17 16:33N 49°29' E 000°07'10 9.6
2014-Sep-17 15:33N 49°36' W 000°04'6320.7
2014-Sep-17 12:31N 50°32' W 000°48'1819.2
2014-Sep-17 11:33N 50°47' W 001°06'2 2.1
2014-Sep-17 10:33N 50°49' W 001°06'0 0.0
2014-Sep-17 09:33N 50°49' W 001°06'0 0.0
2014-Sep-17 08:33N 50°49' W 001°06'0 0.0
2014-Sep-17 07:33N 50°49' W 001°06'1 0.9
2014-Sep-17 06:33N 50°48' W 001°07'1413.7
2014-Sep-17 05:33N 50°37' W 000°54'1212.0
2014-Sep-17 04:33N 50°28' W 000°42'1613.0
2014-Sep-17 03:18N 50°15' W 000°27'2313.0
2014-Sep-17 01:31N 49°52' W 000°17'1010.3
2014-Sep-17 00:33N 49°43' W 000°12'3 3.2
2014-Sep-16 23:33N 49°40' W 000°09'1 1.4
2014-Sep-16 22:33N 49°40' W 000°07'6 6.3
2014-Sep-16 21:33N 49°35' W 000°02'8 8.1
2014-Sep-16 20:33N 49°29' E 000°07'0 0.0
2014-Sep-16 19:33N 49°29' E 000°07'0 0.0
2014-Sep-16 18:33N 49°29' E 000°07'0 0.0
2014-Sep-16 17:33N 49°29' E 000°07'0 0.0
2014-Sep-16 16:33N 49°29' E 000°07'9 9.4
2014-Sep-16 15:33N 49°36' W 000°04'4020.0
2014-Sep-16 13:33N 50°13' W 000°24'2019.7
2014-Sep-16 12:33N 50°29' W 000°44'2019.7
2014-Sep-16 11:33N 50°44' W 001°03'5 5.1
2014-Sep-16 10:34N 50°49' W 001°06'0 0.0
2014-Sep-16 09:34N 50°49' W 001°06'0 0.0
2014-Sep-16 08:33N 50°49' W 001°06'0 0.0
2014-Sep-16 07:34N 50°49' W 001°06'6 6.2
2014-Sep-16 06:33N 50°43' W 001°01'1313.1
2014-Sep-16 05:33N 50°32' W 000°49'1712.6
2014-Sep-16 04:13N 50°18' W 000°36'3311.1
2014-Sep-16 01:16N 49°49' W 000°13'7 9.4
2014-Sep-16 00:33N 49°42' W 000°09'10 9.5
2014-Sep-15 23:33N 49°34' W 000°02'7 7.5
2014-Sep-15 22:34N 49°29' E 000°07'0 0.0
2014-Sep-15 21:34N 49°29' E 000°07'6 6.3
2014-Sep-15 20:34N 49°33' W 000°01'2221.7
2014-Sep-15 19:33N 49°51' W 000°19'2221.4
2014-Sep-15 18:31N 50°10' W 000°37'2021.2
2014-Sep-15 17:34N 50°28' W 000°51'2019.6
2014-Sep-15 16:34N 50°46' W 001°05'3 2.8
2014-Sep-15 15:33N 50°49' W 001°06'0 0.0
2014-Sep-15 14:33N 50°49' W 001°06'3 3.0
2014-Sep-15 13:33N 50°46' W 001°05'1615.5
2014-Sep-15 12:33N 50°31' W 001°14'17421.7
2014-Sep-15 04:33N 48°41' W 004°41'2020.4
2014-Sep-15 03:33N 48°26' W 005°02'2019.7
2014-Sep-15 02:33N 48°07' W 005°10'2120.7
2014-Sep-15 01:33N 47°47' W 005°06'19320.6
2014-Sep-14 16:11N 44°39' W 004°06'1420.7
2014-Sep-14 15:30N 44°25' W 004°01'2021.3
2014-Sep-14 14:32N 44°05' W 003°55'2321.5
2014-Sep-14 13:29N 43°43' W 003°48'5 0.9
2014-Sep-14 08:12N 43°38' W 003°47'1422.1
2014-Sep-14 07:33N 43°53' W 003°50'2121.4
2014-Sep-14 06:33N 44°14' W 003°55'22021.7
2014-Sep-13 20:27N 47°51' W 004°42'1819.7
2014-Sep-13 19:34N 48°08' W 004°46'1818.0
2014-Sep-13 18:33N 48°26' W 004°50'18019.7
2014-Sep-13 09:27N 50°27' W 001°26'1718.8
2014-Sep-13 08:34N 50°36' W 001°04'1212.1
2014-Sep-13 07:33N 50°48' W 001°07'1 0.7
2014-Sep-13 06:33N 50°49' W 001°06'0 0.0
2014-Sep-13 05:33N 50°49' W 001°06'0 0.0
2014-Sep-13 04:33N 50°49' W 001°06'6 6.3
2014-Sep-13 03:33N 50°43' W 001°01'1313.1
2014-Sep-13 02:33N 50°33' W 000°48'5512.6
2014-Sep-12 22:12N 49°44' W 000°10'710.3
2014-Sep-12 21:34N 49°38' W 000°06'9 8.5
2014-Sep-12 20:34N 49°31' E 000°01'4 4.1
2014-Sep-12 19:34N 49°29' E 000°07'0 0.0
2014-Sep-12 18:33N 49°29' E 000°07'0 0.0
2014-Sep-12 17:34N 49°29' E 000°07'0 0.0
2014-Sep-12 16:34N 49°29' E 000°07'1111.0
2014-Sep-12 15:33N 49°37' W 000°05'  

Dump ship's entire track history